Ever Best — 3FWT8 — position and weather

sailwx.info

Track history (hours):
 
Tides and Currents Weather Stations Pressure Air Temp Water Temp Dewpoint Dewpoint Depression Visibility Wind Speed Wind Dir Waves Ship Positions

Ever Best

Last reported at 2018-Feb-19 00:25 UTC. Time now 2018-Feb-21 11:49 UTC.
Position N 34°26' E 134°06'.

Length 229 m; draft 11 m.

Type: Cargo ship. MMSI: 355173000.

Date/timePositionNaut miles runAvg speedWind from/ knotsBaromVisibWave heightAir tempDewpointWater temp
2018-Feb-19 00:25N 34°26' E 134°06'512.6
2018-Feb-18 23:59N 34°25' E 134°12'612.7
2018-Feb-18 23:30N 34°25' E 134°20'613.1
2018-Feb-18 23:00N 34°26' E 134°27'613.1
2018-Feb-18 22:30N 34°29' E 134°35'713.0
2018-Feb-18 22:00N 34°31' E 134°42'612.5
2018-Feb-18 21:30N 34°34' E 134°49'611.5
2018-Feb-18 21:00N 34°36' E 134°55'5 9.5
2018-Feb-18 20:30N 34°38' E 135°01'4 7.4
2018-Feb-18 20:00N 34°36' E 135°05'4 8.8
2018-Feb-18 19:30N 34°35' E 135°10'3 6.1
2018-Feb-18 19:00N 34°35' E 135°14'0 0.4
2018-Feb-18 18:28N 34°35' E 135°13'0 0.0
2018-Feb-18 17:58N 34°35' E 135°13'0 0.1
2018-Feb-18 17:28N 34°35' E 135°13'0 0.0
2018-Feb-18 16:58N 34°35' E 135°13'0 0.0
2018-Feb-18 16:28N 34°35' E 135°13'0 0.0
2018-Feb-18 15:58N 34°35' E 135°13'0 0.0
2018-Feb-18 15:28N 34°35' E 135°13'0 0.0
2018-Feb-18 14:58N 34°35' E 135°13'0 0.0
2018-Feb-18 14:28N 34°35' E 135°13'0 0.0
2018-Feb-18 13:58N 34°35' E 135°13'0 0.0
2018-Feb-18 13:28N 34°35' E 135°13'0 0.1
2018-Feb-18 12:58N 34°35' E 135°13'0 0.6
2018-Feb-18 12:30N 34°35' E 135°14'3 6.4
2018-Feb-18 12:00N 34°31' E 135°13'611.0
2018-Feb-18 11:30N 34°27' E 135°08'611.7
2018-Feb-18 11:00N 34°23' E 135°04'611.8
2018-Feb-18 10:30N 34°18' E 134°60'611.3
2018-Feb-18 10:00N 34°12' E 134°59'5 9.4
2018-Feb-18 09:31N 34°08' E 134°60'3 6.9
2018-Feb-18 09:00N 34°04' E 134°59'2 4.4
2018-Feb-18 08:31N 34°02' E 134°60'2 3.4
2018-Feb-18 08:01N 34°00' E 134°60'1 1.2
2018-Feb-18 07:30N 33°60' E 134°60'2 4.8
2018-Feb-18 07:00N 33°57' E 134°60'5 9.0
2018-Feb-18 06:30N 33°53' E 134°60'510.0
2018-Feb-18 06:00N 33°48' E 134°60'5 9.8
2018-Feb-18 05:30N 33°43' E 135°02'5 9.9
2018-Feb-18 05:00N 33°39' E 135°05'13 9.8
2018-Feb-18 03:41N 33°31' E 135°17'210.4
2018-Feb-18 03:29N 33°30' E 135°19'510.1
2018-Feb-18 03:00N 33°28' E 135°25'5611.0
2018-Feb-17 21:54N 33°38' E 136°31'7810.3
2018-Feb-17 14:23N 34°08' E 137°57'3 8.3
2018-Feb-17 13:59N 34°09' E 138°01'4 7.5
2018-Feb-17 13:28N 34°10' E 138°05'4 7.5
2018-Feb-17 12:57N 34°12' E 138°09'4 6.9
2018-Feb-17 12:26N 34°13' E 138°13'3 7.1
2018-Feb-17 11:58N 34°14' E 138°17'4 7.0
2018-Feb-17 11:26N 34°16' E 138°21'3 6.7
2018-Feb-17 11:00N 34°17' E 138°25'3 7.0
2018-Feb-17 10:30N 34°18' E 138°28'4 7.4
2018-Feb-17 09:58N 34°20' E 138°33'4 7.6
2018-Feb-17 09:30N 34°21' E 138°37'4 7.6
2018-Feb-17 09:00N 34°23' E 138°41'4 7.8
2018-Feb-17 08:30N 34°25' E 138°45'4 7.4
2018-Feb-17 07:58N 34°26' E 138°49'4 6.1
2018-Feb-17 07:22N 34°27' E 138°54'3 7.4
2018-Feb-17 07:00N 34°28' E 138°57'4 7.7
2018-Feb-17 06:30N 34°30' E 139°01'4 7.3
2018-Feb-17 06:00N 34°31' E 139°05'4 7.3
2018-Feb-17 05:30N 34°32' E 139°09'4 7.3
2018-Feb-17 05:00N 34°34' E 139°13'4 7.1
2018-Feb-17 04:30N 34°35' E 139°17'3 6.8
2018-Feb-17 04:00N 34°37' E 139°21'4 6.6
2018-Feb-17 03:21N 34°38' E 139°26'2 6.5
2018-Feb-17 03:00N 34°39' E 139°29'4 7.1
2018-Feb-17 02:25N 34°41' E 139°33'3 8.4
2018-Feb-17 02:00N 34°42' E 139°37'5 9.5
2018-Feb-17 01:29N 34°44' E 139°43'511.0
2018-Feb-17 01:00N 34°46' E 139°49'810.8
2018-Feb-17 00:15N 34°49' E 139°58'310.4
2018-Feb-16 23:59N 34°50' E 140°01'611.4
2018-Feb-16 23:28N 34°54' E 140°07'612.6
2018-Feb-16 23:00N 34°57' E 140°13'611.9
2018-Feb-16 22:30N 34°60' E 140°19'  
Track history (hours):
 
Tides and Currents Weather Stations Pressure Air Temp Water Temp Dewpoint Dewpoint Depression Visibility Wind Speed Wind Dir Waves Ship Positions

Ever Best

Last reported at 2018-Feb-19 00:25 UTC. Time now 2018-Feb-21 11:49 UTC.
Position N 34°26' E 134°06'.

Length 229 m; draft 11 m.

Type: Cargo ship. MMSI: 355173000.

Date/timePositionNaut miles runAvg speedWind from/ knotsBaromVisibWave heightAir tempDewpointWater temp
2018-Feb-19 00:25N 34°26' E 134°06'512.6
2018-Feb-18 23:59N 34°25' E 134°12'612.7
2018-Feb-18 23:30N 34°25' E 134°20'613.1
2018-Feb-18 23:00N 34°26' E 134°27'613.1
2018-Feb-18 22:30N 34°29' E 134°35'713.0
2018-Feb-18 22:00N 34°31' E 134°42'612.5
2018-Feb-18 21:30N 34°34' E 134°49'611.5
2018-Feb-18 21:00N 34°36' E 134°55'5 9.5
2018-Feb-18 20:30N 34°38' E 135°01'4 7.4
2018-Feb-18 20:00N 34°36' E 135°05'4 8.8
2018-Feb-18 19:30N 34°35' E 135°10'3 6.1
2018-Feb-18 19:00N 34°35' E 135°14'0 0.4
2018-Feb-18 18:28N 34°35' E 135°13'0 0.0
2018-Feb-18 17:58N 34°35' E 135°13'0 0.1
2018-Feb-18 17:28N 34°35' E 135°13'0 0.0
2018-Feb-18 16:58N 34°35' E 135°13'0 0.0
2018-Feb-18 16:28N 34°35' E 135°13'0 0.0
2018-Feb-18 15:58N 34°35' E 135°13'0 0.0
2018-Feb-18 15:28N 34°35' E 135°13'0 0.0
2018-Feb-18 14:58N 34°35' E 135°13'0 0.0
2018-Feb-18 14:28N 34°35' E 135°13'0 0.0
2018-Feb-18 13:58N 34°35' E 135°13'0 0.0
2018-Feb-18 13:28N 34°35' E 135°13'0 0.1
2018-Feb-18 12:58N 34°35' E 135°13'0 0.6
2018-Feb-18 12:30N 34°35' E 135°14'3 6.4
2018-Feb-18 12:00N 34°31' E 135°13'611.0
2018-Feb-18 11:30N 34°27' E 135°08'611.7
2018-Feb-18 11:00N 34°23' E 135°04'611.8
2018-Feb-18 10:30N 34°18' E 134°60'611.3
2018-Feb-18 10:00N 34°12' E 134°59'5 9.4
2018-Feb-18 09:31N 34°08' E 134°60'3 6.9
2018-Feb-18 09:00N 34°04' E 134°59'2 4.4
2018-Feb-18 08:31N 34°02' E 134°60'2 3.4
2018-Feb-18 08:01N 34°00' E 134°60'1 1.2
2018-Feb-18 07:30N 33°60' E 134°60'2 4.8
2018-Feb-18 07:00N 33°57' E 134°60'5 9.0
2018-Feb-18 06:30N 33°53' E 134°60'510.0
2018-Feb-18 06:00N 33°48' E 134°60'5 9.8
2018-Feb-18 05:30N 33°43' E 135°02'5 9.9
2018-Feb-18 05:00N 33°39' E 135°05'13 9.8
2018-Feb-18 03:41N 33°31' E 135°17'210.4
2018-Feb-18 03:29N 33°30' E 135°19'510.1
2018-Feb-18 03:00N 33°28' E 135°25'5611.0
2018-Feb-17 21:54N 33°38' E 136°31'7810.3
2018-Feb-17 14:23N 34°08' E 137°57'3 8.3
2018-Feb-17 13:59N 34°09' E 138°01'4 7.5
2018-Feb-17 13:28N 34°10' E 138°05'4 7.5
2018-Feb-17 12:57N 34°12' E 138°09'4 6.9
2018-Feb-17 12:26N 34°13' E 138°13'3 7.1
2018-Feb-17 11:58N 34°14' E 138°17'4 7.0
2018-Feb-17 11:26N 34°16' E 138°21'3 6.7
2018-Feb-17 11:00N 34°17' E 138°25'3 7.0
2018-Feb-17 10:30N 34°18' E 138°28'4 7.4
2018-Feb-17 09:58N 34°20' E 138°33'4 7.6
2018-Feb-17 09:30N 34°21' E 138°37'4 7.6
2018-Feb-17 09:00N 34°23' E 138°41'4 7.8
2018-Feb-17 08:30N 34°25' E 138°45'4 7.4
2018-Feb-17 07:58N 34°26' E 138°49'4 6.1
2018-Feb-17 07:22N 34°27' E 138°54'3 7.4
2018-Feb-17 07:00N 34°28' E 138°57'4 7.7
2018-Feb-17 06:30N 34°30' E 139°01'4 7.3
2018-Feb-17 06:00N 34°31' E 139°05'4 7.3
2018-Feb-17 05:30N 34°32' E 139°09'4 7.3
2018-Feb-17 05:00N 34°34' E 139°13'4 7.1
2018-Feb-17 04:30N 34°35' E 139°17'3 6.8
2018-Feb-17 04:00N 34°37' E 139°21'4 6.6
2018-Feb-17 03:21N 34°38' E 139°26'2 6.5
2018-Feb-17 03:00N 34°39' E 139°29'4 7.1
2018-Feb-17 02:25N 34°41' E 139°33'3 8.4
2018-Feb-17 02:00N 34°42' E 139°37'5 9.5
2018-Feb-17 01:29N 34°44' E 139°43'511.0
2018-Feb-17 01:00N 34°46' E 139°49'810.8
2018-Feb-17 00:15N 34°49' E 139°58'310.4
2018-Feb-16 23:59N 34°50' E 140°01'611.4
2018-Feb-16 23:28N 34°54' E 140°07'612.6
2018-Feb-16 23:00N 34°57' E 140°13'611.9
2018-Feb-16 22:30N 34°60' E 140°19'  

Dump ship's entire track history